sensor_id;sensor_type;location;lat;lon;timestamp;P1;durP1;ratioP1;P2;durP2;ratioP2
25391;SDS011;13329;48.402;11.718;2022-11-11T00:02:20;4.27;;;2.07;;
25391;SDS011;13329;48.402;11.718;2022-11-11T00:04:45;5.30;;;3.13;;
25391;SDS011;13329;48.402;11.718;2022-11-11T00:07:11;3.10;;;2.10;;
25391;SDS011;13329;48.402;11.718;2022-11-11T00:09:36;3.60;;;2.53;;
25391;SDS011;13329;48.402;11.718;2022-11-11T00:12:01;3.83;;;2.50;;
25391;SDS011;13329;48.402;11.718;2022-11-11T00:14:26;5.20;;;2.17;;
25391;SDS011;13329;48.402;11.718;2022-11-11T00:16:51;3.87;;;2.03;;
25391;SDS011;13329;48.402;11.718;2022-11-11T00:19:35;2.88;;;1.77;;
25391;SDS011;13329;48.402;11.718;2022-11-11T00:22:20;3.97;;;2.00;;
25391;SDS011;13329;48.402;11.718;2022-11-11T00:25:04;3.50;;;2.28;;
25391;SDS011;13329;48.402;11.718;2022-11-11T00:27:32;4.28;;;2.65;;
25391;SDS011;13329;48.402;11.718;2022-11-11T00:29:58;4.63;;;2.40;;
25391;SDS011;13329;48.402;11.718;2022-11-11T00:32:23;6.27;;;2.50;;
25391;SDS011;13329;48.402;11.718;2022-11-11T00:34:52;3.40;;;2.25;;
25391;SDS011;13329;48.402;11.718;2022-11-11T00:37:36;2.35;;;1.80;;
25391;SDS011;13329;48.402;11.718;2022-11-11T00:40:02;5.82;;;2.00;;
25391;SDS011;13329;48.402;11.718;2022-11-11T00:42:27;3.78;;;2.20;;
25391;SDS011;13329;48.402;11.718;2022-11-11T00:44:52;4.10;;;2.50;;
25391;SDS011;13329;48.402;11.718;2022-11-11T00:47:17;3.93;;;2.73;;
25391;SDS011;13329;48.402;11.718;2022-11-11T00:50:06;4.75;;;3.25;;
25391;SDS011;13329;48.402;11.718;2022-11-11T00:52:50;5.55;;;2.80;;
25391;SDS011;13329;48.402;11.718;2022-11-11T00:55:16;3.80;;;2.00;;
25391;SDS011;13329;48.402;11.718;2022-11-11T00:57:41;4.23;;;2.30;;
25391;SDS011;13329;48.402;11.718;2022-11-11T01:00:06;3.90;;;2.13;;
25391;SDS011;13329;48.402;11.718;2022-11-11T01:02:31;4.10;;;1.90;;
25391;SDS011;13329;48.402;11.718;2022-11-11T01:04:57;3.20;;;2.10;;
25391;SDS011;13329;48.402;11.718;2022-11-11T01:07:22;6.47;;;2.80;;
25391;SDS011;13329;48.402;11.718;2022-11-11T01:09:47;4.40;;;2.00;;
25391;SDS011;13329;48.402;11.718;2022-11-11T01:12:12;4.13;;;2.57;;
25391;SDS011;13329;48.402;11.718;2022-11-11T01:14:37;3.10;;;2.00;;
25391;SDS011;13329;48.402;11.718;2022-11-11T01:17:02;5.37;;;2.23;;
25391;SDS011;13329;48.402;11.718;2022-11-11T01:19:30;6.13;;;2.33;;
25391;SDS011;13329;48.402;11.718;2022-11-11T01:21:55;4.38;;;2.17;;
25391;SDS011;13329;48.402;11.718;2022-11-11T01:24:20;2.53;;;2.00;;
25391;SDS011;13329;48.402;11.718;2022-11-11T01:26:45;3.93;;;2.13;;
25391;SDS011;13329;48.402;11.718;2022-11-11T01:29:11;3.90;;;2.63;;
25391;SDS011;13329;48.402;11.718;2022-11-11T01:31:36;4.07;;;3.13;;
25391;SDS011;13329;48.402;11.718;2022-11-11T01:34:01;5.80;;;2.90;;
25391;SDS011;13329;48.402;11.718;2022-11-11T01:36:26;5.10;;;2.60;;
25391;SDS011;13329;48.402;11.718;2022-11-11T01:38:56;6.70;;;3.17;;
25391;SDS011;13329;48.402;11.718;2022-11-11T01:41:31;5.75;;;2.85;;
25391;SDS011;13329;48.402;11.718;2022-11-11T01:43:58;8.32;;;3.00;;
25391;SDS011;13329;48.402;11.718;2022-11-11T01:46:27;4.07;;;2.70;;
25391;SDS011;13329;48.402;11.718;2022-11-11T01:49:08;4.10;;;2.40;;
25391;SDS011;13329;48.402;11.718;2022-11-11T01:51:48;3.30;;;2.13;;
25391;SDS011;13329;48.402;11.718;2022-11-11T01:54:34;4.63;;;2.20;;
25391;SDS011;13329;48.402;11.718;2022-11-11T01:57:03;2.55;;;1.98;;
25391;SDS011;13329;48.402;11.718;2022-11-11T01:59:29;3.88;;;2.55;;
25391;SDS011;13329;48.402;11.718;2022-11-11T02:01:56;4.32;;;2.42;;
25391;SDS011;13329;48.402;11.718;2022-11-11T02:04:21;3.83;;;2.50;;
25391;SDS011;13329;48.402;11.718;2022-11-11T02:07:06;4.95;;;2.95;;
25391;SDS011;13329;48.402;11.718;2022-11-11T02:09:32;6.80;;;3.25;;
25391;SDS011;13329;48.402;11.718;2022-11-11T02:11:58;4.53;;;2.60;;
25391;SDS011;13329;48.402;11.718;2022-11-11T02:14:44;3.95;;;2.45;;
25391;SDS011;13329;48.402;11.718;2022-11-11T02:17:11;6.68;;;2.63;;
25391;SDS011;13329;48.402;11.718;2022-11-11T02:19:41;7.30;;;2.70;;
25391;SDS011;13329;48.402;11.718;2022-11-11T02:22:08;4.60;;;2.30;;
25391;SDS011;13329;48.402;11.718;2022-11-11T02:24:35;5.05;;;2.75;;
25391;SDS011;13329;48.402;11.718;2022-11-11T02:27:01;5.47;;;2.53;;
25391;SDS011;13329;48.402;11.718;2022-11-11T02:29:27;3.67;;;2.47;;
25391;SDS011;13329;48.402;11.718;2022-11-11T02:31:52;4.55;;;2.78;;
25391;SDS011;13329;48.402;11.718;2022-11-11T02:34:18;8.18;;;2.80;;
25391;SDS011;13329;48.402;11.718;2022-11-11T02:36:43;4.33;;;2.70;;
25391;SDS011;13329;48.402;11.718;2022-11-11T02:39:09;5.07;;;2.58;;
25391;SDS011;13329;48.402;11.718;2022-11-11T02:41:34;6.28;;;3.10;;
25391;SDS011;13329;48.402;11.718;2022-11-11T02:44:18;4.65;;;2.97;;
25391;SDS011;13329;48.402;11.718;2022-11-11T02:46:43;4.73;;;2.50;;
25391;SDS011;13329;48.402;11.718;2022-11-11T02:49:08;6.83;;;2.73;;
25391;SDS011;13329;48.402;11.718;2022-11-11T02:51:33;6.77;;;2.70;;
25391;SDS011;13329;48.402;11.718;2022-11-11T02:53:58;5.83;;;3.10;;
25391;SDS011;13329;48.402;11.718;2022-11-11T02:56:27;4.40;;;2.97;;
25391;SDS011;13329;48.402;11.718;2022-11-11T02:59:11;5.32;;;2.42;;
25391;SDS011;13329;48.402;11.718;2022-11-11T03:01:36;7.03;;;2.42;;
25391;SDS011;13329;48.402;11.718;2022-11-11T03:04:01;4.30;;;2.47;;
25391;SDS011;13329;48.402;11.718;2022-11-11T03:06:27;4.43;;;2.28;;
25391;SDS011;13329;48.402;11.718;2022-11-11T03:08:52;4.57;;;2.83;;
25391;SDS011;13329;48.402;11.718;2022-11-11T03:11:17;4.87;;;2.13;;
25391;SDS011;13329;48.402;11.718;2022-11-11T03:13:51;3.90;;;2.45;;
25391;SDS011;13329;48.402;11.718;2022-11-11T03:16:17;5.35;;;2.50;;
25391;SDS011;13329;48.402;11.718;2022-11-11T03:19:11;4.53;;;2.58;;
25391;SDS011;13329;48.402;11.718;2022-11-11T03:21:37;4.33;;;2.60;;
25391;SDS011;13329;48.402;11.718;2022-11-11T03:24:02;4.07;;;1.95;;
25391;SDS011;13329;48.402;11.718;2022-11-11T03:26:27;4.18;;;2.60;;
25391;SDS011;13329;48.402;11.718;2022-11-11T03:28:52;4.97;;;2.60;;
25391;SDS011;13329;48.402;11.718;2022-11-11T03:31:17;6.30;;;3.33;;
25391;SDS011;13329;48.402;11.718;2022-11-11T03:33:43;5.13;;;2.60;;
25391;SDS011;13329;48.402;11.718;2022-11-11T03:36:08;5.30;;;2.73;;
25391;SDS011;13329;48.402;11.718;2022-11-11T03:38:33;7.87;;;2.23;;
25391;SDS011;13329;48.402;11.718;2022-11-11T03:40:58;10.15;;;2.38;;
25391;SDS011;13329;48.402;11.718;2022-11-11T03:43:25;6.65;;;2.80;;
25391;SDS011;13329;48.402;11.718;2022-11-11T03:45:51;7.13;;;2.92;;
25391;SDS011;13329;48.402;11.718;2022-11-11T03:48:16;5.75;;;2.67;;
25391;SDS011;13329;48.402;11.718;2022-11-11T03:50:41;10.50;;;2.77;;
25391;SDS011;13329;48.402;11.718;2022-11-11T03:53:07;7.13;;;3.13;;
25391;SDS011;13329;48.402;11.718;2022-11-11T03:55:32;5.70;;;3.03;;
25391;SDS011;13329;48.402;11.718;2022-11-11T03:57:58;6.30;;;3.38;;
25391;SDS011;13329;48.402;11.718;2022-11-11T04:00:24;6.95;;;3.10;;
25391;SDS011;13329;48.402;11.718;2022-11-11T04:02:50;8.65;;;3.40;;
25391;SDS011;13329;48.402;11.718;2022-11-11T04:05:33;5.70;;;2.92;;
25391;SDS011;13329;48.402;11.718;2022-11-11T04:08:18;8.27;;;3.20;;
25391;SDS011;13329;48.402;11.718;2022-11-11T04:11:08;8.60;;;4.45;;
25391;SDS011;13329;48.402;11.718;2022-11-11T04:13:35;9.93;;;3.63;;
25391;SDS011;13329;48.402;11.718;2022-11-11T04:16:19;8.50;;;3.10;;
25391;SDS011;13329;48.402;11.718;2022-11-11T04:18:44;17.08;;;3.90;;
25391;SDS011;13329;48.402;11.718;2022-11-11T04:21:28;7.82;;;2.97;;
25391;SDS011;13329;48.402;11.718;2022-11-11T04:24:09;10.32;;;3.83;;
25391;SDS011;13329;48.402;11.718;2022-11-11T04:26:54;11.25;;;3.28;;
25391;SDS011;13329;48.402;11.718;2022-11-11T04:29:20;9.40;;;3.20;;
25391;SDS011;13329;48.402;11.718;2022-11-11T04:32:01;7.13;;;3.63;;
25391;SDS011;13329;48.402;11.718;2022-11-11T04:35:04;8.57;;;4.45;;
25391;SDS011;13329;48.402;11.718;2022-11-11T04:37:31;10.43;;;4.25;;
25391;SDS011;13329;48.402;11.718;2022-11-11T04:39:56;10.43;;;4.10;;
25391;SDS011;13329;48.402;11.718;2022-11-11T04:42:40;8.90;;;3.33;;
25391;SDS011;13329;48.402;11.718;2022-11-11T04:45:05;13.33;;;4.57;;
25391;SDS011;13329;48.402;11.718;2022-11-11T04:50:28;9.55;;;4.22;;
25391;SDS011;13329;48.402;11.718;2022-11-11T04:52:53;8.93;;;3.78;;
25391;SDS011;13329;48.402;11.718;2022-11-11T04:55:19;9.15;;;4.05;;
25391;SDS011;13329;48.402;11.718;2022-11-11T04:58:02;7.72;;;3.83;;
25391;SDS011;13329;48.402;11.718;2022-11-11T05:00:28;6.82;;;3.50;;
25391;SDS011;13329;48.402;11.718;2022-11-11T05:02:53;6.72;;;3.38;;
25391;SDS011;13329;48.402;11.718;2022-11-11T05:05:38;9.00;;;3.35;;
25391;SDS011;13329;48.402;11.718;2022-11-11T05:08:21;7.68;;;3.47;;
25391;SDS011;13329;48.402;11.718;2022-11-11T05:11:06;9.65;;;3.05;;
25391;SDS011;13329;48.402;11.718;2022-11-11T05:13:31;10.02;;;3.42;;
25391;SDS011;13329;48.402;11.718;2022-11-11T05:16:16;5.85;;;3.20;;
25391;SDS011;13329;48.402;11.718;2022-11-11T05:19:01;10.07;;;3.00;;
25391;SDS011;13329;48.402;11.718;2022-11-11T05:21:45;5.97;;;3.33;;
25391;SDS011;13329;48.402;11.718;2022-11-11T05:24:10;7.20;;;3.08;;
25391;SDS011;13329;48.402;11.718;2022-11-11T05:26:54;6.88;;;3.28;;
25391;SDS011;13329;48.402;11.718;2022-11-11T05:29:19;5.57;;;3.47;;
25391;SDS011;13329;48.402;11.718;2022-11-11T05:31:44;6.63;;;2.70;;
25391;SDS011;13329;48.402;11.718;2022-11-11T05:34:09;4.43;;;2.63;;
25391;SDS011;13329;48.402;11.718;2022-11-11T05:36:34;8.10;;;2.93;;
25391;SDS011;13329;48.402;11.718;2022-11-11T05:38:59;5.13;;;2.33;;
25391;SDS011;13329;48.402;11.718;2022-11-11T05:41:25;4.90;;;2.77;;
25391;SDS011;13329;48.402;11.718;2022-11-11T05:43:50;5.07;;;2.63;;
25391;SDS011;13329;48.402;11.718;2022-11-11T05:46:15;7.33;;;2.83;;
25391;SDS011;13329;48.402;11.718;2022-11-11T05:48:40;5.43;;;3.20;;
25391;SDS011;13329;48.402;11.718;2022-11-11T05:51:25;7.25;;;3.63;;
25391;SDS011;13329;48.402;11.718;2022-11-11T05:53:54;8.13;;;3.40;;
25391;SDS011;13329;48.402;11.718;2022-11-11T05:56:19;8.15;;;3.85;;
25391;SDS011;13329;48.402;11.718;2022-11-11T05:58:45;7.13;;;3.70;;
25391;SDS011;13329;48.402;11.718;2022-11-11T06:01:10;9.30;;;3.23;;
25391;SDS011;13329;48.402;11.718;2022-11-11T06:03:35;5.27;;;3.30;;
25391;SDS011;13329;48.402;11.718;2022-11-11T06:06:00;5.80;;;3.53;;
25391;SDS011;13329;48.402;11.718;2022-11-11T06:08:25;11.57;;;4.17;;
25391;SDS011;13329;48.402;11.718;2022-11-11T06:10:50;9.73;;;4.00;;
25391;SDS011;13329;48.402;11.718;2022-11-11T06:13:17;7.60;;;3.90;;
25391;SDS011;13329;48.402;11.718;2022-11-11T06:15:42;9.63;;;4.90;;
25391;SDS011;13329;48.402;11.718;2022-11-11T06:18:07;8.10;;;4.60;;
25391;SDS011;13329;48.402;11.718;2022-11-11T06:20:32;9.20;;;4.50;;
25391;SDS011;13329;48.402;11.718;2022-11-11T06:23:01;9.45;;;3.80;;
25391;SDS011;13329;48.402;11.718;2022-11-11T06:25:27;7.43;;;3.60;;
25391;SDS011;13329;48.402;11.718;2022-11-11T06:28:11;7.68;;;3.40;;
25391;SDS011;13329;48.402;11.718;2022-11-11T06:30:36;10.90;;;3.63;;
25391;SDS011;13329;48.402;11.718;2022-11-11T06:33:02;5.78;;;3.40;;
25391;SDS011;13329;48.402;11.718;2022-11-11T06:35:27;9.18;;;3.70;;
25391;SDS011;13329;48.402;11.718;2022-11-11T06:37:53;6.13;;;3.87;;
25391;SDS011;13329;48.402;11.718;2022-11-11T06:40:18;5.60;;;3.30;;
25391;SDS011;13329;48.402;11.718;2022-11-11T06:42:43;5.77;;;3.10;;
25391;SDS011;13329;48.402;11.718;2022-11-11T06:45:08;5.80;;;3.50;;
25391;SDS011;13329;48.402;11.718;2022-11-11T06:47:34;4.28;;;2.72;;
25391;SDS011;13329;48.402;11.718;2022-11-11T06:49:59;4.83;;;3.40;;
25391;SDS011;13329;48.402;11.718;2022-11-11T06:52:24;4.87;;;3.00;;
25391;SDS011;13329;48.402;11.718;2022-11-11T06:54:49;6.10;;;2.73;;
25391;SDS011;13329;48.402;11.718;2022-11-11T06:57:14;6.27;;;3.27;;
25391;SDS011;13329;48.402;11.718;2022-11-11T06:59:39;6.27;;;3.50;;
25391;SDS011;13329;48.402;11.718;2022-11-11T07:02:05;6.37;;;3.00;;
25391;SDS011;13329;48.402;11.718;2022-11-11T07:04:30;6.38;;;3.13;;
25391;SDS011;13329;48.402;11.718;2022-11-11T07:06:55;5.10;;;3.20;;
25391;SDS011;13329;48.402;11.718;2022-11-11T07:09:20;7.07;;;4.07;;
25391;SDS011;13329;48.402;11.718;2022-11-11T07:11:47;7.03;;;4.40;;
25391;SDS011;13329;48.402;11.718;2022-11-11T07:14:12;6.60;;;4.25;;
25391;SDS011;13329;48.402;11.718;2022-11-11T07:16:37;7.73;;;4.20;;
25391;SDS011;13329;48.402;11.718;2022-11-11T07:19:02;5.53;;;3.97;;
25391;SDS011;13329;48.402;11.718;2022-11-11T07:21:28;5.43;;;3.33;;
25391;SDS011;13329;48.402;11.718;2022-11-11T07:23:53;6.00;;;3.60;;
25391;SDS011;13329;48.402;11.718;2022-11-11T07:26:18;5.50;;;2.60;;
25391;SDS011;13329;48.402;11.718;2022-11-11T07:28:43;4.77;;;3.03;;
25391;SDS011;13329;48.402;11.718;2022-11-11T07:31:08;4.97;;;2.93;;
25391;SDS011;13329;48.402;11.718;2022-11-11T07:33:33;7.17;;;3.33;;
25391;SDS011;13329;48.402;11.718;2022-11-11T07:35:59;5.10;;;3.17;;
25391;SDS011;13329;48.402;11.718;2022-11-11T07:38:24;7.00;;;3.50;;
25391;SDS011;13329;48.402;11.718;2022-11-11T07:40:49;12.30;;;3.67;;
25391;SDS011;13329;48.402;11.718;2022-11-11T07:43:14;7.00;;;3.90;;
25391;SDS011;13329;48.402;11.718;2022-11-11T07:45:39;6.67;;;3.57;;
25391;SDS011;13329;48.402;11.718;2022-11-11T07:48:04;6.53;;;3.73;;
25391;SDS011;13329;48.402;11.718;2022-11-11T07:50:30;6.60;;;4.00;;
25391;SDS011;13329;48.402;11.718;2022-11-11T07:52:55;12.43;;;4.13;;
25391;SDS011;13329;48.402;11.718;2022-11-11T07:55:20;6.13;;;3.60;;
25391;SDS011;13329;48.402;11.718;2022-11-11T07:57:46;9.98;;;3.00;;
25391;SDS011;13329;48.402;11.718;2022-11-11T08:00:11;9.03;;;3.93;;
25391;SDS011;13329;48.402;11.718;2022-11-11T08:02:36;8.55;;;4.10;;
25391;SDS011;13329;48.402;11.718;2022-11-11T08:05:01;6.20;;;3.50;;
25391;SDS011;13329;48.402;11.718;2022-11-11T08:07:27;12.25;;;3.85;;
25391;SDS011;13329;48.402;11.718;2022-11-11T08:09:52;8.80;;;3.90;;
25391;SDS011;13329;48.402;11.718;2022-11-11T08:12:17;11.43;;;3.73;;
25391;SDS011;13329;48.402;11.718;2022-11-11T08:15:01;10.20;;;3.47;;
25391;SDS011;13329;48.402;11.718;2022-11-11T08:17:26;6.63;;;3.70;;
25391;SDS011;13329;48.402;11.718;2022-11-11T08:19:51;14.33;;;3.67;;
25391;SDS011;13329;48.402;11.718;2022-11-11T08:22:16;8.10;;;3.40;;
25391;SDS011;13329;48.402;11.718;2022-11-11T08:24:41;8.03;;;3.47;;
25391;SDS011;13329;48.402;11.718;2022-11-11T08:27:06;5.87;;;3.13;;
25391;SDS011;13329;48.402;11.718;2022-11-11T08:29:33;7.03;;;3.15;;
25391;SDS011;13329;48.402;11.718;2022-11-11T08:31:58;7.30;;;3.57;;
25391;SDS011;13329;48.402;11.718;2022-11-11T08:34:24;6.80;;;3.70;;
25391;SDS011;13329;48.402;11.718;2022-11-11T08:36:49;8.17;;;4.03;;
25391;SDS011;13329;48.402;11.718;2022-11-11T08:39:14;11.00;;;4.25;;
25391;SDS011;13329;48.402;11.718;2022-11-11T08:41:39;9.70;;;4.20;;
25391;SDS011;13329;48.402;11.718;2022-11-11T08:44:04;6.87;;;3.83;;
25391;SDS011;13329;48.402;11.718;2022-11-11T08:46:31;8.95;;;4.35;;
25391;SDS011;13329;48.402;11.718;2022-11-11T08:48:56;10.27;;;4.30;;
25391;SDS011;13329;48.402;11.718;2022-11-11T08:51:21;12.20;;;4.70;;
25391;SDS011;13329;48.402;11.718;2022-11-11T08:53:46;8.83;;;4.80;;
25391;SDS011;13329;48.402;11.718;2022-11-11T08:56:11;8.83;;;4.77;;
25391;SDS011;13329;48.402;11.718;2022-11-11T08:58:37;10.20;;;4.60;;
25391;SDS011;13329;48.402;11.718;2022-11-11T09:01:02;9.95;;;5.40;;
25391;SDS011;13329;48.402;11.718;2022-11-11T09:03:28;8.88;;;4.68;;
25391;SDS011;13329;48.402;11.718;2022-11-11T09:05:54;9.57;;;4.90;;
25391;SDS011;13329;48.402;11.718;2022-11-11T09:08:19;9.95;;;4.53;;
25391;SDS011;13329;48.402;11.718;2022-11-11T09:10:44;7.47;;;4.53;;
25391;SDS011;13329;48.402;11.718;2022-11-11T09:13:10;6.93;;;4.23;;
25391;SDS011;13329;48.402;11.718;2022-11-11T09:15:35;12.53;;;4.47;;
25391;SDS011;13329;48.402;11.718;2022-11-11T09:18:00;7.63;;;4.57;;
25391;SDS011;13329;48.402;11.718;2022-11-11T09:20:26;10.23;;;4.50;;
25391;SDS011;13329;48.402;11.718;2022-11-11T09:22:51;7.03;;;4.20;;
25391;SDS011;13329;48.402;11.718;2022-11-11T09:25:19;7.72;;;3.92;;
25391;SDS011;13329;48.402;11.718;2022-11-11T09:27:57;5.20;;;2.88;;
25391;SDS011;13329;48.402;11.718;2022-11-11T09:30:23;6.00;;;3.88;;
25391;SDS011;13329;48.402;11.718;2022-11-11T09:32:49;7.40;;;3.75;;
25391;SDS011;13329;48.402;11.718;2022-11-11T09:35:14;7.63;;;4.03;;
25391;SDS011;13329;48.402;11.718;2022-11-11T09:37:39;7.10;;;4.20;;
25391;SDS011;13329;48.402;11.718;2022-11-11T09:40:05;5.07;;;3.60;;
25391;SDS011;13329;48.402;11.718;2022-11-11T09:42:32;5.35;;;3.50;;
25391;SDS011;13329;48.402;11.718;2022-11-11T09:50:13;7.25;;;2.90;;
25391;SDS011;13329;48.402;11.718;2022-11-11T09:52:42;4.50;;;2.90;;
25391;SDS011;13329;48.402;11.718;2022-11-11T09:55:15;4.43;;;3.20;;
25391;SDS011;13329;48.402;11.718;2022-11-11T09:57:47;5.28;;;3.33;;
25391;SDS011;13329;48.402;11.718;2022-11-11T10:00:15;5.50;;;3.30;;
25391;SDS011;13329;48.402;11.718;2022-11-11T10:02:48;5.72;;;3.38;;
25391;SDS011;13329;48.402;11.718;2022-11-11T10:05:16;5.10;;;3.28;;
25391;SDS011;13329;48.402;11.718;2022-11-11T10:08:26;6.00;;;3.38;;
25391;SDS011;13329;48.402;11.718;2022-11-11T10:10:38;5.03;;;3.00;;
25391;SDS011;13329;48.402;11.718;2022-11-11T10:13:10;4.55;;;2.97;;
25391;SDS011;13329;48.402;11.718;2022-11-11T10:15:38;4.38;;;3.20;;
25391;SDS011;13329;48.402;11.718;2022-11-11T10:18:10;5.93;;;3.42;;
25391;SDS011;13329;48.402;11.718;2022-11-11T10:20:40;4.32;;;2.60;;
25391;SDS011;13329;48.402;11.718;2022-11-11T10:23:11;6.72;;;3.38;;
25391;SDS011;13329;48.402;11.718;2022-11-11T10:25:37;5.15;;;2.95;;
25391;SDS011;13329;48.402;11.718;2022-11-11T10:28:06;5.22;;;3.35;;
25391;SDS011;13329;48.402;11.718;2022-11-11T10:30:34;7.20;;;3.60;;
25391;SDS011;13329;48.402;11.718;2022-11-11T10:33:03;6.57;;;3.97;;
25391;SDS011;13329;48.402;11.718;2022-11-11T10:35:30;7.10;;;3.80;;
25391;SDS011;13329;48.402;11.718;2022-11-11T10:38:30;6.13;;;2.80;;
25391;SDS011;13329;48.402;11.718;2022-11-11T10:40:53;5.00;;;3.00;;
25391;SDS011;13329;48.402;11.718;2022-11-11T10:43:23;6.80;;;2.88;;
25391;SDS011;13329;48.402;11.718;2022-11-11T10:48:42;4.55;;;2.80;;
25391;SDS011;13329;48.402;11.718;2022-11-11T10:51:10;6.75;;;3.45;;
25391;SDS011;13329;48.402;11.718;2022-11-11T10:53:44;6.60;;;3.60;;
25391;SDS011;13329;48.402;11.718;2022-11-11T10:58:52;5.93;;;3.30;;
25391;SDS011;13329;48.402;11.718;2022-11-11T11:01:29;4.13;;;2.80;;
25391;SDS011;13329;48.402;11.718;2022-11-11T11:04:00;5.93;;;2.70;;
25391;SDS011;13329;48.402;11.718;2022-11-11T11:06:28;4.95;;;2.65;;
25391;SDS011;13329;48.402;11.718;2022-11-11T11:09:02;5.25;;;3.20;;
25391;SDS011;13329;48.402;11.718;2022-11-11T11:11:32;4.97;;;2.90;;
25391;SDS011;13329;48.402;11.718;2022-11-11T11:14:12;5.15;;;3.03;;
25391;SDS011;13329;48.402;11.718;2022-11-11T11:16:41;6.47;;;3.30;;
25391;SDS011;13329;48.402;11.718;2022-11-11T11:19:20;6.25;;;3.50;;
25391;SDS011;13329;48.402;11.718;2022-11-11T11:21:50;12.38;;;3.45;;
25391;SDS011;13329;48.402;11.718;2022-11-11T11:24:19;4.07;;;3.35;;
25391;SDS011;13329;48.402;11.718;2022-11-11T11:26:46;6.20;;;2.97;;
25391;SDS011;13329;48.402;11.718;2022-11-11T11:29:11;7.07;;;3.67;;
25391;SDS011;13329;48.402;11.718;2022-11-11T11:31:39;7.03;;;3.93;;
25391;SDS011;13329;48.402;11.718;2022-11-11T11:34:05;10.20;;;3.95;;
25391;SDS011;13329;48.402;11.718;2022-11-11T11:36:30;6.53;;;4.10;;
25391;SDS011;13329;48.402;11.718;2022-11-11T11:38:55;5.53;;;3.70;;
25391;SDS011;13329;48.402;11.718;2022-11-11T11:41:37;6.60;;;3.67;;
25391;SDS011;13329;48.402;11.718;2022-11-11T11:44:02;6.10;;;3.88;;
25391;SDS011;13329;48.402;11.718;2022-11-11T11:46:37;7.85;;;3.50;;
25391;SDS011;13329;48.402;11.718;2022-11-11T11:56:47;8.57;;;4.50;;
25391;SDS011;13329;48.402;11.718;2022-11-11T12:07:04;7.10;;;3.90;;
25391;SDS011;13329;48.402;11.718;2022-11-11T12:11:59;4.97;;;3.15;;
25391;SDS011;13329;48.402;11.718;2022-11-11T12:14:39;6.07;;;3.70;;
25391;SDS011;13329;48.402;11.718;2022-11-11T12:17:29;5.80;;;3.88;;
25391;SDS011;13329;48.402;11.718;2022-11-11T12:20:32;4.90;;;3.35;;
25391;SDS011;13329;48.402;11.718;2022-11-11T12:25:20;5.97;;;3.78;;
25391;SDS011;13329;48.402;11.718;2022-11-11T12:30:18;7.57;;;3.63;;
25391;SDS011;13329;48.402;11.718;2022-11-11T12:35:30;5.85;;;3.00;;
25391;SDS011;13329;48.402;11.718;2022-11-11T12:43:28;6.07;;;3.55;;
25391;SDS011;13329;48.402;11.718;2022-11-11T12:45:59;5.07;;;3.25;;
25391;SDS011;13329;48.402;11.718;2022-11-11T12:48:34;3.60;;;2.90;;
25391;SDS011;13329;48.402;11.718;2022-11-11T12:51:05;5.53;;;2.83;;
25391;SDS011;13329;48.402;11.718;2022-11-11T12:53:39;6.72;;;2.95;;
25391;SDS011;13329;48.402;11.718;2022-11-11T12:58:41;3.60;;;2.35;;
25391;SDS011;13329;48.402;11.718;2022-11-11T13:11:25;3.85;;;2.17;;
25391;SDS011;13329;48.402;11.718;2022-11-11T13:14:09;2.67;;;2.15;;
25391;SDS011;13329;48.402;11.718;2022-11-11T13:16:39;3.10;;;2.35;;
25391;SDS011;13329;48.402;11.718;2022-11-11T13:19:13;3.40;;;2.20;;
25391;SDS011;13329;48.402;11.718;2022-11-11T13:21:53;3.05;;;2.10;;
25391;SDS011;13329;48.402;11.718;2022-11-11T13:24:20;4.03;;;2.20;;
25391;SDS011;13329;48.402;11.718;2022-11-11T13:26:47;5.38;;;2.33;;
25391;SDS011;13329;48.402;11.718;2022-11-11T13:31:39;3.83;;;2.60;;
25391;SDS011;13329;48.402;11.718;2022-11-11T13:34:08;5.30;;;2.13;;
25391;SDS011;13329;48.402;11.718;2022-11-11T13:36:44;3.80;;;2.03;;
25391;SDS011;13329;48.402;11.718;2022-11-11T13:41:55;4.10;;;2.70;;
25391;SDS011;13329;48.402;11.718;2022-11-11T13:45:06;5.75;;;2.30;;
25391;SDS011;13329;48.402;11.718;2022-11-11T13:47:09;5.60;;;2.70;;
25391;SDS011;13329;48.402;11.718;2022-11-11T13:49:55;7.32;;;2.78;;
25391;SDS011;13329;48.402;11.718;2022-11-11T13:52:29;3.75;;;2.33;;
25391;SDS011;13329;48.402;11.718;2022-11-11T13:54:59;3.95;;;2.10;;
25391;SDS011;13329;48.402;11.718;2022-11-11T13:57:25;3.58;;;2.33;;
25391;SDS011;13329;48.402;11.718;2022-11-11T14:10:54;3.00;;;1.95;;
25391;SDS011;13329;48.402;11.718;2022-11-11T14:12:54;2.58;;;1.42;;
25391;SDS011;13329;48.402;11.718;2022-11-11T14:17:54;2.10;;;1.25;;
25391;SDS011;13329;48.402;11.718;2022-11-11T14:23:21;3.90;;;1.70;;
25391;SDS011;13329;48.402;11.718;2022-11-11T14:28:26;2.88;;;1.55;;
25391;SDS011;13329;48.402;11.718;2022-11-11T14:30:52;2.37;;;1.87;;
25391;SDS011;13329;48.402;11.718;2022-11-11T14:33:21;4.07;;;1.80;;
25391;SDS011;13329;48.402;11.718;2022-11-11T14:35:53;2.28;;;1.50;;
25391;SDS011;13329;48.402;11.718;2022-11-11T14:38:24;2.55;;;1.70;;
25391;SDS011;13329;48.402;11.718;2022-11-11T14:40:52;2.03;;;1.33;;
25391;SDS011;13329;48.402;11.718;2022-11-11T14:43:38;3.00;;;1.70;;
25391;SDS011;13329;48.402;11.718;2022-11-11T14:46:04;2.42;;;1.60;;
25391;SDS011;13329;48.402;11.718;2022-11-11T14:51:33;2.00;;;1.80;;
25391;SDS011;13329;48.402;11.718;2022-11-11T14:54:01;5.53;;;2.10;;
25391;SDS011;13329;48.402;11.718;2022-11-11T14:56:27;2.95;;;2.28;;
25391;SDS011;13329;48.402;11.718;2022-11-11T14:58:52;3.38;;;2.35;;
25391;SDS011;13329;48.402;11.718;2022-11-11T15:01:18;2.55;;;1.95;;
25391;SDS011;13329;48.402;11.718;2022-11-11T15:03:45;4.00;;;2.30;;
25391;SDS011;13329;48.402;11.718;2022-11-11T15:06:17;2.65;;;1.92;;
25391;SDS011;13329;48.402;11.718;2022-11-11T15:11:32;3.35;;;2.15;;
25391;SDS011;13329;48.402;11.718;2022-11-11T15:21:34;2.88;;;2.28;;
25391;SDS011;13329;48.402;11.718;2022-11-11T15:26:32;4.70;;;2.55;;
25391;SDS011;13329;48.402;11.718;2022-11-11T15:31:31;4.10;;;2.47;;
25391;SDS011;13329;48.402;11.718;2022-11-11T15:38:57;3.72;;;2.58;;
25391;SDS011;13329;48.402;11.718;2022-11-11T15:41:23;4.13;;;2.50;;
25391;SDS011;13329;48.402;11.718;2022-11-11T15:43:49;4.65;;;2.55;;
25391;SDS011;13329;48.402;11.718;2022-11-11T15:46:22;6.80;;;2.85;;
25391;SDS011;13329;48.402;11.718;2022-11-11T15:48:48;4.40;;;2.80;;
25391;SDS011;13329;48.402;11.718;2022-11-11T15:51:28;10.75;;;3.17;;
25391;SDS011;13329;48.402;11.718;2022-11-11T15:54:07;13.82;;;4.40;;
25391;SDS011;13329;48.402;11.718;2022-11-11T15:56:33;12.25;;;3.75;;
25391;SDS011;13329;48.402;11.718;2022-11-11T15:59:17;15.80;;;4.93;;
25391;SDS011;13329;48.402;11.718;2022-11-11T16:01:45;8.70;;;3.45;;
25391;SDS011;13329;48.402;11.718;2022-11-11T16:04:13;10.37;;;3.20;;
25391;SDS011;13329;48.402;11.718;2022-11-11T16:06:39;4.63;;;2.83;;
25391;SDS011;13329;48.402;11.718;2022-11-11T16:09:05;7.03;;;3.30;;
25391;SDS011;13329;48.402;11.718;2022-11-11T16:11:31;4.60;;;2.90;;
25391;SDS011;13329;48.402;11.718;2022-11-11T16:14:01;4.63;;;2.50;;
25391;SDS011;13329;48.402;11.718;2022-11-11T16:16:29;4.00;;;2.58;;
25391;SDS011;13329;48.402;11.718;2022-11-11T16:18:57;6.55;;;3.00;;
25391;SDS011;13329;48.402;11.718;2022-11-11T16:21:27;4.22;;;2.67;;
25391;SDS011;13329;48.402;11.718;2022-11-11T16:23:53;4.85;;;2.83;;
25391;SDS011;13329;48.402;11.718;2022-11-11T16:26:19;4.07;;;2.50;;
25391;SDS011;13329;48.402;11.718;2022-11-11T16:28:45;3.72;;;2.30;;
25391;SDS011;13329;48.402;11.718;2022-11-11T16:33:56;4.90;;;2.78;;